Paoli, IN (47454)

2:47 AM EST on February 06, 2016 (GMT -0500)
APRSWXNET | | Change Station
CLOSE
Current Station
Personal Weather Station
Location: Paoli, IN
Elevation: 639 ft
Nearby Weather Stations

Elev 639 ft 38.57 °N, 86.47 °W | Updated 220 days ago

Partly Cloudy
Partly Cloudy
27 °F
Feels Like 27 °F
N
3
Wind Variable Wind from ESE
Gusts mph

Today
High -- | Low -- °F
--% Chance of Precip.
Yesterday
High -- | Low -- °F
Precip. -- in
Pressure 30.36 in
Visibility 10.0 miles
Clouds Clear
Dew Point 22 °F
Humidity 83%
Rainfall in
Snow Depth Not available.
7:47 AM 6:13 PM
Waning Crescent, 7% visible
METAR KHNB 060735Z AUTO 00000KT 10SM CLR M03/M06 A3036 RMK AO1
Pressure 30.36 in
Visibility 10.0 miles
Clouds Clear
Dew Point 22 °F
Humidity 83%
Rainfall in
Snow Depth Not available.
7:47 AM 6:13 PM
Waning Crescent, 7% visible
METAR KHNB 060735Z AUTO 00000KT 10SM CLR M03/M06 A3036 RMK AO1

10-Day Weather Forecast

Almanac

Astronomy

Feb. 06, 2016 Rise Set
Actual Time
Civil Twilight
Nautical Twilight
Astronomical Twilight
Moon
Length of Visible Light
Length of Day
Tomorrow will be .
, % of the Moon is Illuminated

Today's Extremes

State Highs State Lows

Community

WunderPhotos

Upload Photos

1,890,933 photos uploaded!

WunderBlog® & News

Nearby

Air Quality

  Air Quality AQ Index Pollutant
Not available.

Snow Depth

Station Depth Elevation

Earthquake Activity

City Distance Mag. Time & Date
Minimum magnitude displayed is 2.5.

Coastal Water Temperatures

Place Temperature

Stations

Nearby Weather Stations

Station Location Temp. Windchill Dew Point Humidity Wind Precip. Elev Updated Type
                   

Watches & Warnings

There are currently no watches in effect.